sensor_id;sensor_type;location;lat;lon;timestamp;temperature;humidity
65396;HTU21D;52004;45.136;39.010;2023-05-02T00:01:10;11.31;68.93
65396;HTU21D;52004;45.136;39.010;2023-05-02T00:03:35;11.31;68.90
65396;HTU21D;52004;45.136;39.010;2023-05-02T00:06:01;11.29;68.87
65396;HTU21D;52004;45.136;39.010;2023-05-02T00:08:27;11.28;68.84
65396;HTU21D;52004;45.136;39.010;2023-05-02T00:10:53;11.25;68.84
65396;HTU21D;52004;45.136;39.010;2023-05-02T00:13:19;11.24;68.85
65396;HTU21D;52004;45.136;39.010;2023-05-02T00:15:45;11.19;68.86
65396;HTU21D;52004;45.136;39.010;2023-05-02T00:18:11;11.17;68.91
65396;HTU21D;52004;45.136;39.010;2023-05-02T00:20:38;11.12;68.93
65396;HTU21D;52004;45.136;39.010;2023-05-02T00:23:04;11.09;68.96
65396;HTU21D;52004;45.136;39.010;2023-05-02T00:25:30;11.07;69.00
65396;HTU21D;52004;45.136;39.010;2023-05-02T00:27:56;11.03;69.07
65396;HTU21D;52004;45.136;39.010;2023-05-02T00:30:22;11.01;69.13
65396;HTU21D;52004;45.136;39.010;2023-05-02T00:32:48;10.99;69.21
65396;HTU21D;52004;45.136;39.010;2023-05-02T00:35:13;10.99;69.22
65396;HTU21D;52004;45.136;39.010;2023-05-02T00:37:40;11.01;69.23
65396;HTU21D;52004;45.136;39.010;2023-05-02T00:40:06;11.01;69.21
65396;HTU21D;52004;45.136;39.010;2023-05-02T00:42:32;11.00;69.27
65396;HTU21D;52004;45.136;39.010;2023-05-02T00:45:01;11.00;69.29
65396;HTU21D;52004;45.136;39.010;2023-05-02T00:47:28;11.00;69.33
65396;HTU21D;52004;45.136;39.010;2023-05-02T00:49:54;10.99;69.36
65396;HTU21D;52004;45.136;39.010;2023-05-02T00:52:19;11.01;69.39
65396;HTU21D;52004;45.136;39.010;2023-05-02T00:54:46;11.02;69.42
65396;HTU21D;52004;45.136;39.010;2023-05-02T00:57:12;11.04;69.45
65396;HTU21D;52004;45.136;39.010;2023-05-02T00:59:38;11.04;69.49
65396;HTU21D;52004;45.136;39.010;2023-05-02T01:04:39;11.07;69.49
65396;HTU21D;52004;45.136;39.010;2023-05-02T01:07:21;11.05;69.50
65396;HTU21D;52004;45.136;39.010;2023-05-02T01:14:52;11.07;69.52
65396;HTU21D;52004;45.136;39.010;2023-05-02T01:17:19;11.05;69.52
65396;HTU21D;52004;45.136;39.010;2023-05-02T01:19:50;11.04;69.54
65396;HTU21D;52004;45.136;39.010;2023-05-02T01:22:17;11.07;69.52
65396;HTU21D;52004;45.136;39.010;2023-05-02T01:24:51;11.07;69.53
65396;HTU21D;52004;45.136;39.010;2023-05-02T01:30:04;11.04;69.53
65396;HTU21D;52004;45.136;39.010;2023-05-02T01:32:32;11.05;69.53
65396;HTU21D;52004;45.136;39.010;2023-05-02T01:34:59;11.03;69.58
65396;HTU21D;52004;45.136;39.010;2023-05-02T01:37:26;11.03;69.61
65396;HTU21D;52004;45.136;39.010;2023-05-02T01:39:53;11.03;69.60
65396;HTU21D;52004;45.136;39.010;2023-05-02T01:42:20;11.04;69.65
65396;HTU21D;52004;45.136;39.010;2023-05-02T01:44:47;11.05;69.68
65396;HTU21D;52004;45.136;39.010;2023-05-02T01:47:14;11.04;69.68
65396;HTU21D;52004;45.136;39.010;2023-05-02T01:49:39;11.05;69.71
65396;HTU21D;52004;45.136;39.010;2023-05-02T01:52:09;11.07;69.74
65396;HTU21D;52004;45.136;39.010;2023-05-02T01:54:36;11.07;69.77
65396;HTU21D;52004;45.136;39.010;2023-05-02T01:57:04;11.09;69.76
65396;HTU21D;52004;45.136;39.010;2023-05-02T01:59:30;11.09;69.80
65396;HTU21D;52004;45.136;39.010;2023-05-02T02:02:00;11.09;69.81
65396;HTU21D;52004;45.136;39.010;2023-05-02T02:04:26;11.08;69.86
65396;HTU21D;52004;45.136;39.010;2023-05-02T02:07:14;11.07;69.90
65396;HTU21D;52004;45.136;39.010;2023-05-02T02:09:39;11.07;69.92
65396;HTU21D;52004;45.136;39.010;2023-05-02T02:12:15;11.08;69.94
65396;HTU21D;52004;45.136;39.010;2023-05-02T02:14:42;11.08;69.97
65396;HTU21D;52004;45.136;39.010;2023-05-02T02:17:12;11.08;69.99
65396;HTU21D;52004;45.136;39.010;2023-05-02T02:19:39;11.08;70.03
65396;HTU21D;52004;45.136;39.010;2023-05-02T02:22:06;11.09;70.03
65396;HTU21D;52004;45.136;39.010;2023-05-02T02:24:34;11.09;70.02
65396;HTU21D;52004;45.136;39.010;2023-05-02T02:27:00;11.11;70.05
65396;HTU21D;52004;45.136;39.010;2023-05-02T02:29:27;11.11;70.05
65396;HTU21D;52004;45.136;39.010;2023-05-02T02:31:53;11.10;70.10
65396;HTU21D;52004;45.136;39.010;2023-05-02T02:34:18;11.10;70.14
65396;HTU21D;52004;45.136;39.010;2023-05-02T02:36:52;11.12;70.16
65396;HTU21D;52004;45.136;39.010;2023-05-02T02:39:43;11.13;70.14
65396;HTU21D;52004;45.136;39.010;2023-05-02T02:44:58;11.15;70.18
65396;HTU21D;52004;45.136;39.010;2023-05-02T02:47:28;11.16;70.19
65396;HTU21D;52004;45.136;39.010;2023-05-02T02:52:33;11.19;70.22
65396;HTU21D;52004;45.136;39.010;2023-05-02T02:55:11;11.20;70.22
65396;HTU21D;52004;45.136;39.010;2023-05-02T02:57:46;11.23;70.24
65396;HTU21D;52004;45.136;39.010;2023-05-02T03:00:19;11.27;70.24
65396;HTU21D;52004;45.136;39.010;2023-05-02T03:02:46;11.28;70.21
65396;HTU21D;52004;45.136;39.010;2023-05-02T03:05:12;11.29;70.23
65396;HTU21D;52004;45.136;39.010;2023-05-02T03:07:39;11.30;70.25
65396;HTU21D;52004;45.136;39.010;2023-05-02T03:10:05;11.32;70.24
65396;HTU21D;52004;45.136;39.010;2023-05-02T03:12:33;11.34;70.26
65396;HTU21D;52004;45.136;39.010;2023-05-02T03:15:13;11.36;70.29
65396;HTU21D;52004;45.136;39.010;2023-05-02T03:17:43;11.34;70.29
65396;HTU21D;52004;45.136;39.010;2023-05-02T03:20:09;11.37;70.32
65396;HTU21D;52004;45.136;39.010;2023-05-02T03:22:35;11.41;70.37
65396;HTU21D;52004;45.136;39.010;2023-05-02T03:25:01;11.42;70.38
65396;HTU21D;52004;45.136;39.010;2023-05-02T03:27:28;11.45;70.44
65396;HTU21D;52004;45.136;39.010;2023-05-02T03:29:58;11.49;70.42
65396;HTU21D;52004;45.136;39.010;2023-05-02T03:32:24;11.53;70.42
65396;HTU21D;52004;45.136;39.010;2023-05-02T03:34:51;11.55;70.44
65396;HTU21D;52004;45.136;39.010;2023-05-02T03:37:18;11.57;70.46
65396;HTU21D;52004;45.136;39.010;2023-05-02T03:39:44;11.61;70.45
65396;HTU21D;52004;45.136;39.010;2023-05-02T03:42:10;11.63;70.45
65396;HTU21D;52004;45.136;39.010;2023-05-02T03:44:36;11.66;70.48
65396;HTU21D;52004;45.136;39.010;2023-05-02T03:47:02;11.67;70.52
65396;HTU21D;52004;45.136;39.010;2023-05-02T03:49:32;11.69;70.55
65396;HTU21D;52004;45.136;39.010;2023-05-02T03:51:59;11.73;70.58
65396;HTU21D;52004;45.136;39.010;2023-05-02T03:54:31;11.76;70.62
65396;HTU21D;52004;45.136;39.010;2023-05-02T03:56:58;11.83;70.63
65396;HTU21D;52004;45.136;39.010;2023-05-02T03:59:32;11.85;70.64
65396;HTU21D;52004;45.136;39.010;2023-05-02T04:02:02;11.90;70.69
65396;HTU21D;52004;45.136;39.010;2023-05-02T04:04:39;11.94;70.74
65396;HTU21D;52004;45.136;39.010;2023-05-02T04:07:07;12.01;70.72
65396;HTU21D;52004;45.136;39.010;2023-05-02T04:09:36;12.05;70.68
65396;HTU21D;52004;45.136;39.010;2023-05-02T04:12:07;12.10;70.72
65396;HTU21D;52004;45.136;39.010;2023-05-02T04:14:37;12.13;70.77
65396;HTU21D;52004;45.136;39.010;2023-05-02T04:17:03;12.17;70.72
65396;HTU21D;52004;45.136;39.010;2023-05-02T04:19:43;12.18;70.73
65396;HTU21D;52004;45.136;39.010;2023-05-02T04:22:10;12.19;70.85
65396;HTU21D;52004;45.136;39.010;2023-05-02T04:24:41;12.23;70.95
65396;HTU21D;52004;45.136;39.010;2023-05-02T04:27:07;12.30;70.89
65396;HTU21D;52004;45.136;39.010;2023-05-02T04:29:34;12.36;70.94
65396;HTU21D;52004;45.136;39.010;2023-05-02T04:32:00;12.40;70.94
65396;HTU21D;52004;45.136;39.010;2023-05-02T04:34:28;12.48;70.95
65396;HTU21D;52004;45.136;39.010;2023-05-02T04:36:54;12.56;70.90
65396;HTU21D;52004;45.136;39.010;2023-05-02T04:39:22;12.67;70.79
65396;HTU21D;52004;45.136;39.010;2023-05-02T04:42:08;12.78;70.81
65396;HTU21D;52004;45.136;39.010;2023-05-02T04:44:41;12.87;70.74
65396;HTU21D;52004;45.136;39.010;2023-05-02T04:47:07;12.96;70.80
65396;HTU21D;52004;45.136;39.010;2023-05-02T04:49:33;13.06;70.84
65396;HTU21D;52004;45.136;39.010;2023-05-02T04:51:59;13.18;70.92
65396;HTU21D;52004;45.136;39.010;2023-05-02T04:54:25;0.00;71.07
65396;HTU21D;52004;45.136;39.010;2023-05-02T04:56:51;13.54;71.05
65396;HTU21D;52004;45.136;39.010;2023-05-02T04:59:18;0.00;70.88
65396;HTU21D;52004;45.136;39.010;2023-05-02T05:01:44;13.81;70.76
65396;HTU21D;52004;45.136;39.010;2023-05-02T05:04:10;13.90;70.64
65396;HTU21D;52004;45.136;39.010;2023-05-02T05:06:36;13.96;70.56
65396;HTU21D;52004;45.136;39.010;2023-05-02T05:09:03;13.99;70.36
65396;HTU21D;52004;45.136;39.010;2023-05-02T05:11:29;14.00;70.35
65396;HTU21D;52004;45.136;39.010;2023-05-02T05:13:56;14.04;70.35
65396;HTU21D;52004;45.136;39.010;2023-05-02T05:16:23;14.07;70.32
65396;HTU21D;52004;45.136;39.010;2023-05-02T05:18:51;0.00;70.25
65396;HTU21D;52004;45.136;39.010;2023-05-02T05:21:18;14.09;70.28
65396;HTU21D;52004;45.136;39.010;2023-05-02T05:23:46;14.10;70.23
65396;HTU21D;52004;45.136;39.010;2023-05-02T05:26:18;14.07;70.12
65396;HTU21D;52004;45.136;39.010;2023-05-02T05:28:47;14.01;70.13
65396;HTU21D;52004;45.136;39.010;2023-05-02T05:31:13;14.00;70.11
65396;HTU21D;52004;45.136;39.010;2023-05-02T05:33:45;13.99;70.13
65396;HTU21D;52004;45.136;39.010;2023-05-02T05:36:12;13.99;70.10
65396;HTU21D;52004;45.136;39.010;2023-05-02T05:38:39;14.03;70.15
65396;HTU21D;52004;45.136;39.010;2023-05-02T05:41:08;14.05;70.11
65396;HTU21D;52004;45.136;39.010;2023-05-02T05:43:37;14.06;70.08
65396;HTU21D;52004;45.136;39.010;2023-05-02T05:46:03;14.06;70.01
65396;HTU21D;52004;45.136;39.010;2023-05-02T05:48:32;14.07;70.00
65396;HTU21D;52004;45.136;39.010;2023-05-02T05:51:03;14.07;70.01
65396;HTU21D;52004;45.136;39.010;2023-05-02T05:53:30;14.08;70.03
65396;HTU21D;52004;45.136;39.010;2023-05-02T05:55:56;14.10;70.00
65396;HTU21D;52004;45.136;39.010;2023-05-02T05:58:23;14.14;70.11
65396;HTU21D;52004;45.136;39.010;2023-05-02T06:00:51;14.24;70.07
65396;HTU21D;52004;45.136;39.010;2023-05-02T06:03:17;14.29;70.10
65396;HTU21D;52004;45.136;39.010;2023-05-02T06:05:44;14.42;70.10
65396;HTU21D;52004;45.136;39.010;2023-05-02T06:08:10;14.50;69.92
65396;HTU21D;52004;45.136;39.010;2023-05-02T06:10:36;14.53;69.84
65396;HTU21D;52004;45.136;39.010;2023-05-02T06:13:02;14.55;69.81
65396;HTU21D;52004;45.136;39.010;2023-05-02T06:15:33;14.58;69.78
65396;HTU21D;52004;45.136;39.010;2023-05-02T06:18:00;14.63;69.77
65396;HTU21D;52004;45.136;39.010;2023-05-02T06:20:26;14.64;69.66
65396;HTU21D;52004;45.136;39.010;2023-05-02T06:22:52;14.62;69.65
65396;HTU21D;52004;45.136;39.010;2023-05-02T06:25:17;14.64;69.74
65396;HTU21D;52004;45.136;39.010;2023-05-02T06:27:43;14.73;69.78
65396;HTU21D;52004;45.136;39.010;2023-05-02T06:30:09;0.00;69.73
65396;HTU21D;52004;45.136;39.010;2023-05-02T06:32:35;0.00;69.63
65396;HTU21D;52004;45.136;39.010;2023-05-02T06:35:01;14.87;69.60
65396;HTU21D;52004;45.136;39.010;2023-05-02T06:37:31;0.00;69.52
65396;HTU21D;52004;45.136;39.010;2023-05-02T06:39:57;14.91;69.57
65396;HTU21D;52004;45.136;39.010;2023-05-02T06:42:22;14.95;69.62
65396;HTU21D;52004;45.136;39.010;2023-05-02T06:44:49;15.02;69.58
65396;HTU21D;52004;45.136;39.010;2023-05-02T06:47:15;15.08;69.52
65396;HTU21D;52004;45.136;39.010;2023-05-02T06:49:41;15.11;69.47
65396;HTU21D;52004;45.136;39.010;2023-05-02T06:52:07;15.18;69.53
65396;HTU21D;52004;45.136;39.010;2023-05-02T06:54:33;15.26;69.45
65396;HTU21D;52004;45.136;39.010;2023-05-02T06:56:59;15.27;69.32
65396;HTU21D;52004;45.136;39.010;2023-05-02T06:59:25;15.25;69.28
65396;HTU21D;52004;45.136;39.010;2023-05-02T07:01:51;15.25;69.34
65396;HTU21D;52004;45.136;39.010;2023-05-02T07:04:17;15.29;69.48
65396;HTU21D;52004;45.136;39.010;2023-05-02T07:06:43;15.39;69.33
65396;HTU21D;52004;45.136;39.010;2023-05-02T07:09:08;15.42;69.18
65396;HTU21D;52004;45.136;39.010;2023-05-02T07:11:34;15.45;69.08
65396;HTU21D;52004;45.136;39.010;2023-05-02T07:14:00;15.46;69.08
65396;HTU21D;52004;45.136;39.010;2023-05-02T07:16:26;15.48;69.04
65396;HTU21D;52004;45.136;39.010;2023-05-02T07:18:52;15.52;69.07
65396;HTU21D;52004;45.136;39.010;2023-05-02T07:21:18;15.56;68.99
65396;HTU21D;52004;45.136;39.010;2023-05-02T07:23:44;15.58;68.84
65396;HTU21D;52004;45.136;39.010;2023-05-02T07:26:10;15.56;68.84
65396;HTU21D;52004;45.136;39.010;2023-05-02T07:28:36;15.56;68.88
65396;HTU21D;52004;45.136;39.010;2023-05-02T07:31:01;15.60;68.88
65396;HTU21D;52004;45.136;39.010;2023-05-02T07:33:28;15.58;68.87
65396;HTU21D;52004;45.136;39.010;2023-05-02T07:35:54;15.67;69.05
65396;HTU21D;52004;45.136;39.010;2023-05-02T07:38:20;15.76;69.00
65396;HTU21D;52004;45.136;39.010;2023-05-02T07:40:46;15.83;68.86
65396;HTU21D;52004;45.136;39.010;2023-05-02T07:43:12;15.88;68.82
65396;HTU21D;52004;45.136;39.010;2023-05-02T07:45:38;15.97;68.76
65396;HTU21D;52004;45.136;39.010;2023-05-02T07:48:04;15.99;68.65
65396;HTU21D;52004;45.136;39.010;2023-05-02T07:50:30;16.03;68.72
65396;HTU21D;52004;45.136;39.010;2023-05-02T07:52:56;16.14;68.98
65396;HTU21D;52004;45.136;39.010;2023-05-02T07:55:22;16.33;69.10
65396;HTU21D;52004;45.136;39.010;2023-05-02T07:57:51;16.56;69.09
65396;HTU21D;52004;45.136;39.010;2023-05-02T08:00:17;16.70;68.83
65396;HTU21D;52004;45.136;39.010;2023-05-02T08:02:43;16.80;68.73
65396;HTU21D;52004;45.136;39.010;2023-05-02T08:05:10;0.00;68.65
65396;HTU21D;52004;45.136;39.010;2023-05-02T08:07:36;17.00;68.31
65396;HTU21D;52004;45.136;39.010;2023-05-02T08:10:02;17.02;68.15
65396;HTU21D;52004;45.136;39.010;2023-05-02T08:12:28;17.10;68.16
65396;HTU21D;52004;45.136;39.010;2023-05-02T08:14:54;0.00;68.01
65396;HTU21D;52004;45.136;39.010;2023-05-02T08:17:20;17.13;68.17
65396;HTU21D;52004;45.136;39.010;2023-05-02T08:19:46;17.25;68.34
65396;HTU21D;52004;45.136;39.010;2023-05-02T08:22:12;0.00;68.17
65396;HTU21D;52004;45.136;39.010;2023-05-02T08:24:38;17.48;67.72
65396;HTU21D;52004;45.136;39.010;2023-05-02T08:27:04;17.43;67.46
65396;HTU21D;52004;45.136;39.010;2023-05-02T08:29:31;17.36;67.55
65396;HTU21D;52004;45.136;39.010;2023-05-02T08:31:57;17.41;67.77
65396;HTU21D;52004;45.136;39.010;2023-05-02T08:34:23;17.53;67.54
65396;HTU21D;52004;45.136;39.010;2023-05-02T08:36:49;17.58;67.34
65396;HTU21D;52004;45.136;39.010;2023-05-02T08:39:15;17.62;67.46
65396;HTU21D;52004;45.136;39.010;2023-05-02T08:41:41;17.67;67.40
65396;HTU21D;52004;45.136;39.010;2023-05-02T08:44:07;17.68;67.19
65396;HTU21D;52004;45.136;39.010;2023-05-02T08:46:34;17.67;67.10
65396;HTU21D;52004;45.136;39.010;2023-05-02T08:49:01;17.68;67.22
65396;HTU21D;52004;45.136;39.010;2023-05-02T08:51:27;17.73;67.17
65396;HTU21D;52004;45.136;39.010;2023-05-02T08:53:54;17.75;66.98
65396;HTU21D;52004;45.136;39.010;2023-05-02T08:56:20;17.75;66.89
65396;HTU21D;52004;45.136;39.010;2023-05-02T08:58:46;17.69;66.83
65396;HTU21D;52004;45.136;39.010;2023-05-02T09:01:12;17.67;66.72
65396;HTU21D;52004;45.136;39.010;2023-05-02T09:03:39;17.59;66.57
65396;HTU21D;52004;45.136;39.010;2023-05-02T09:06:25;17.50;66.56
65396;HTU21D;52004;45.136;39.010;2023-05-02T09:08:51;17.44;66.62
65396;HTU21D;52004;45.136;39.010;2023-05-02T09:11:17;17.40;66.55
65396;HTU21D;52004;45.136;39.010;2023-05-02T09:18:36;17.29;66.50
65396;HTU21D;52004;45.136;39.010;2023-05-02T09:21:09;17.24;66.46
65396;HTU21D;52004;45.136;39.010;2023-05-02T09:26:15;17.28;66.49
65396;HTU21D;52004;45.136;39.010;2023-05-02T09:28:45;17.29;66.56
65396;HTU21D;52004;45.136;39.010;2023-05-02T09:31:13;17.31;66.49
65396;HTU21D;52004;45.136;39.010;2023-05-02T09:33:39;17.28;66.41
65396;HTU21D;52004;45.136;39.010;2023-05-02T09:36:06;17.19;66.27
65396;HTU21D;52004;45.136;39.010;2023-05-02T09:38:33;17.04;66.25
65396;HTU21D;52004;45.136;39.010;2023-05-02T09:40:59;16.92;66.38
65396;HTU21D;52004;45.136;39.010;2023-05-02T09:43:30;16.85;66.39
65396;HTU21D;52004;45.136;39.010;2023-05-02T09:46:02;16.78;66.63
65396;HTU21D;52004;45.136;39.010;2023-05-02T09:48:29;16.81;66.63
65396;HTU21D;52004;45.136;39.010;2023-05-02T09:50:55;16.91;66.76
65396;HTU21D;52004;45.136;39.010;2023-05-02T09:53:26;17.00;66.65
65396;HTU21D;52004;45.136;39.010;2023-05-02T09:56:25;17.07;66.72
65396;HTU21D;52004;45.136;39.010;2023-05-02T09:58:44;17.25;66.76
65396;HTU21D;52004;45.136;39.010;2023-05-02T10:01:14;17.46;66.80
65396;HTU21D;52004;45.136;39.010;2023-05-02T10:03:40;17.63;66.63
65396;HTU21D;52004;45.136;39.010;2023-05-02T10:06:07;17.74;66.39
65396;HTU21D;52004;45.136;39.010;2023-05-02T10:08:33;17.81;66.27
65396;HTU21D;52004;45.136;39.010;2023-05-02T10:10:59;17.80;65.96
65396;HTU21D;52004;45.136;39.010;2023-05-02T10:13:27;17.73;65.95
65396;HTU21D;52004;45.136;39.010;2023-05-02T10:15:58;17.63;65.87
65396;HTU21D;52004;45.136;39.010;2023-05-02T10:18:28;17.58;65.88
65396;HTU21D;52004;45.136;39.010;2023-05-02T10:20:58;17.51;65.88
65396;HTU21D;52004;45.136;39.010;2023-05-02T10:23:25;17.49;65.99
65396;HTU21D;52004;45.136;39.010;2023-05-02T10:25:51;17.50;65.99
65396;HTU21D;52004;45.136;39.010;2023-05-02T10:28:17;17.60;66.25
65396;HTU21D;52004;45.136;39.010;2023-05-02T10:30:43;17.79;66.33
65396;HTU21D;52004;45.136;39.010;2023-05-02T10:33:12;17.95;65.97
65396;HTU21D;52004;45.136;39.010;2023-05-02T10:35:38;17.97;65.74
65396;HTU21D;52004;45.136;39.010;2023-05-02T10:38:08;18.03;65.77
65396;HTU21D;52004;45.136;39.010;2023-05-02T10:40:34;18.12;65.80
65396;HTU21D;52004;45.136;39.010;2023-05-02T10:43:01;18.23;65.60
65396;HTU21D;52004;45.136;39.010;2023-05-02T10:45:29;18.33;65.57
65396;HTU21D;52004;45.136;39.010;2023-05-02T10:48:16;18.49;65.60
65396;HTU21D;52004;45.136;39.010;2023-05-02T10:56:14;19.02;65.09
65396;HTU21D;52004;45.136;39.010;2023-05-02T10:58:42;19.11;64.79
65396;HTU21D;52004;45.136;39.010;2023-05-02T11:03:55;19.07;64.53
65396;HTU21D;52004;45.136;39.010;2023-05-02T11:06:22;19.00;64.56
65396;HTU21D;52004;45.136;39.010;2023-05-02T11:08:48;18.97;64.48
65396;HTU21D;52004;45.136;39.010;2023-05-02T11:13:59;18.71;64.26
65396;HTU21D;52004;45.136;39.010;2023-05-02T11:16:25;18.58;64.21
65396;HTU21D;52004;45.136;39.010;2023-05-02T11:18:57;18.48;63.99
65396;HTU21D;52004;45.136;39.010;2023-05-02T11:21:27;18.28;63.92
65396;HTU21D;52004;45.136;39.010;2023-05-02T11:24:31;18.13;64.08
65396;HTU21D;52004;45.136;39.010;2023-05-02T11:26:39;18.00;64.09
65396;HTU21D;52004;45.136;39.010;2023-05-02T11:29:04;17.90;64.12
65396;HTU21D;52004;45.136;39.010;2023-05-02T11:33:57;17.76;64.24
65396;HTU21D;52004;45.136;39.010;2023-05-02T11:36:27;17.64;64.17
65396;HTU21D;52004;45.136;39.010;2023-05-02T11:38:54;17.54;64.37
65396;HTU21D;52004;45.136;39.010;2023-05-02T11:41:20;17.44;64.28
65396;HTU21D;52004;45.136;39.010;2023-05-02T11:43:45;17.33;64.33
65396;HTU21D;52004;45.136;39.010;2023-05-02T11:46:11;0.00;64.38
65396;HTU21D;52004;45.136;39.010;2023-05-02T11:48:37;17.08;64.40
65396;HTU21D;52004;45.136;39.010;2023-05-02T11:51:03;16.93;64.54
65396;HTU21D;52004;45.136;39.010;2023-05-02T11:53:31;16.80;64.66
65396;HTU21D;52004;45.136;39.010;2023-05-02T11:55:58;16.70;64.76
65396;HTU21D;52004;45.136;39.010;2023-05-02T11:58:25;16.63;64.85
65396;HTU21D;52004;45.136;39.010;2023-05-02T12:00:56;16.54;64.86
65396;HTU21D;52004;45.136;39.010;2023-05-02T12:03:29;16.47;64.97
65396;HTU21D;52004;45.136;39.010;2023-05-02T12:05:56;16.41;64.97
65396;HTU21D;52004;45.136;39.010;2023-05-02T12:08:26;16.31;65.10
65396;HTU21D;52004;45.136;39.010;2023-05-02T12:10:53;16.24;65.24
65396;HTU21D;52004;45.136;39.010;2023-05-02T12:13:20;16.16;65.40
65396;HTU21D;52004;45.136;39.010;2023-05-02T12:15:47;16.15;65.53
65396;HTU21D;52004;45.136;39.010;2023-05-02T12:18:13;16.17;65.51
65396;HTU21D;52004;45.136;39.010;2023-05-02T12:20:40;16.20;65.50
65396;HTU21D;52004;45.136;39.010;2023-05-02T12:23:06;16.19;65.50
65396;HTU21D;52004;45.136;39.010;2023-05-02T12:25:36;16.18;65.58
65396;HTU21D;52004;45.136;39.010;2023-05-02T12:28:03;16.19;65.53
65396;HTU21D;52004;45.136;39.010;2023-05-02T12:30:29;16.22;65.65
65396;HTU21D;52004;45.136;39.010;2023-05-02T12:32:56;16.27;65.62
65396;HTU21D;52004;45.136;39.010;2023-05-02T12:35:26;16.33;65.62
65396;HTU21D;52004;45.136;39.010;2023-05-02T12:37:52;16.41;65.55
65396;HTU21D;52004;45.136;39.010;2023-05-02T12:40:21;16.46;65.54
65396;HTU21D;52004;45.136;39.010;2023-05-02T12:43:00;16.49;65.51
65396;HTU21D;52004;45.136;39.010;2023-05-02T12:45:31;16.56;65.54
65396;HTU21D;52004;45.136;39.010;2023-05-02T12:48:01;16.64;65.54
65396;HTU21D;52004;45.136;39.010;2023-05-02T12:50:37;16.75;65.59
65396;HTU21D;52004;45.136;39.010;2023-05-02T12:53:03;16.93;65.62
65396;HTU21D;52004;45.136;39.010;2023-05-02T12:55:29;17.09;65.46
65396;HTU21D;52004;45.136;39.010;2023-05-02T12:58:00;17.25;65.56
65396;HTU21D;52004;45.136;39.010;2023-05-02T13:00:26;17.46;65.55
65396;HTU21D;52004;45.136;39.010;2023-05-02T13:02:52;17.64;65.40
65396;HTU21D;52004;45.136;39.010;2023-05-02T13:05:18;17.76;65.14
65396;HTU21D;52004;45.136;39.010;2023-05-02T13:07:44;17.80;64.97
65396;HTU21D;52004;45.136;39.010;2023-05-02T13:10:10;17.77;64.72
65396;HTU21D;52004;45.136;39.010;2023-05-02T13:12:36;17.68;64.25
65396;HTU21D;52004;45.136;39.010;2023-05-02T13:15:03;17.51;64.18
65396;HTU21D;52004;45.136;39.010;2023-05-02T13:17:29;17.37;64.31
65396;HTU21D;52004;45.136;39.010;2023-05-02T13:19:55;17.31;64.40
65396;HTU21D;52004;45.136;39.010;2023-05-02T13:22:21;17.23;64.37
65396;HTU21D;52004;45.136;39.010;2023-05-02T13:24:47;17.13;64.38
65396;HTU21D;52004;45.136;39.010;2023-05-02T13:27:13;17.03;64.51
65396;HTU21D;52004;45.136;39.010;2023-05-02T13:29:38;16.95;64.62
65396;HTU21D;52004;45.136;39.010;2023-05-02T13:32:04;16.95;64.82
65396;HTU21D;52004;45.136;39.010;2023-05-02T13:34:30;17.01;64.84
65396;HTU21D;52004;45.136;39.010;2023-05-02T13:36:56;17.01;64.72
65396;HTU21D;52004;45.136;39.010;2023-05-02T13:39:22;16.99;64.65
65396;HTU21D;52004;45.136;39.010;2023-05-02T13:41:48;16.95;64.59
65396;HTU21D;52004;45.136;39.010;2023-05-02T13:44:14;16.90;64.69
65396;HTU21D;52004;45.136;39.010;2023-05-02T13:46:40;16.94;64.83
65396;HTU21D;52004;45.136;39.010;2023-05-02T13:49:07;17.01;64.78
65396;HTU21D;52004;45.136;39.010;2023-05-02T13:51:33;17.07;64.67
65396;HTU21D;52004;45.136;39.010;2023-05-02T13:53:59;17.08;64.40
65396;HTU21D;52004;45.136;39.010;2023-05-02T13:56:25;17.04;64.40
65396;HTU21D;52004;45.136;39.010;2023-05-02T13:58:51;17.01;64.42
65396;HTU21D;52004;45.136;39.010;2023-05-02T14:01:17;16.99;64.46
65396;HTU21D;52004;45.136;39.010;2023-05-02T14:03:43;16.94;64.30
65396;HTU21D;52004;45.136;39.010;2023-05-02T14:06:09;16.86;64.25
65396;HTU21D;52004;45.136;39.010;2023-05-02T14:08:35;16.78;64.40
65396;HTU21D;52004;45.136;39.010;2023-05-02T14:11:01;16.76;64.50
65396;HTU21D;52004;45.136;39.010;2023-05-02T14:13:26;16.74;64.50
65396;HTU21D;52004;45.136;39.010;2023-05-02T14:15:52;0.00;64.50
65396;HTU21D;52004;45.136;39.010;2023-05-02T14:18:19;16.57;64.68
65396;HTU21D;52004;45.136;39.010;2023-05-02T14:20:45;16.54;64.78
65396;HTU21D;52004;45.136;39.010;2023-05-02T14:23:11;16.55;64.83
65396;HTU21D;52004;45.136;39.010;2023-05-02T14:25:37;16.56;64.89
65396;HTU21D;52004;45.136;39.010;2023-05-02T14:28:03;16.60;64.94
65396;HTU21D;52004;45.136;39.010;2023-05-02T14:30:29;16.66;64.99
65396;HTU21D;52004;45.136;39.010;2023-05-02T14:32:58;16.73;64.96
65396;HTU21D;52004;45.136;39.010;2023-05-02T14:35:24;16.79;65.01
65396;HTU21D;52004;45.136;39.010;2023-05-02T14:37:50;16.88;65.03
65396;HTU21D;52004;45.136;39.010;2023-05-02T14:40:16;16.94;64.98
65396;HTU21D;52004;45.136;39.010;2023-05-02T14:42:43;16.98;64.84
65396;HTU21D;52004;45.136;39.010;2023-05-02T14:48:31;16.80;64.75
65396;HTU21D;52004;45.136;39.010;2023-05-02T14:51:03;16.72;64.82
65396;HTU21D;52004;45.136;39.010;2023-05-02T14:53:37;16.64;64.92
65396;HTU21D;52004;45.136;39.010;2023-05-02T14:56:04;16.60;64.92
65396;HTU21D;52004;45.136;39.010;2023-05-02T14:58:30;16.57;64.95
65396;HTU21D;52004;45.136;39.010;2023-05-02T15:00:56;16.51;64.92
65396;HTU21D;52004;45.136;39.010;2023-05-02T15:03:21;16.39;64.98
65396;HTU21D;52004;45.136;39.010;2023-05-02T15:05:47;16.32;65.04
65396;HTU21D;52004;45.136;39.010;2023-05-02T15:08:13;16.25;65.08
65396;HTU21D;52004;45.136;39.010;2023-05-02T15:10:39;16.17;65.07
65396;HTU21D;52004;45.136;39.010;2023-05-02T15:13:05;16.06;65.11
65396;HTU21D;52004;45.136;39.010;2023-05-02T15:15:32;15.97;65.19
65396;HTU21D;52004;45.136;39.010;2023-05-02T15:17:57;15.88;65.24
65396;HTU21D;52004;45.136;39.010;2023-05-02T15:20:23;15.80;65.28
65396;HTU21D;52004;45.136;39.010;2023-05-02T15:22:49;15.67;65.40
65396;HTU21D;52004;45.136;39.010;2023-05-02T15:25:15;15.61;65.48
65396;HTU21D;52004;45.136;39.010;2023-05-02T15:27:41;15.58;65.50
65396;HTU21D;52004;45.136;39.010;2023-05-02T15:30:07;15.55;65.50
65396;HTU21D;52004;45.136;39.010;2023-05-02T15:32:33;15.49;65.53
65396;HTU21D;52004;45.136;39.010;2023-05-02T15:34:59;15.46;65.53
65396;HTU21D;52004;45.136;39.010;2023-05-02T15:37:25;15.41;65.56
65396;HTU21D;52004;45.136;39.010;2023-05-02T15:39:50;15.36;65.66
65396;HTU21D;52004;45.136;39.010;2023-05-02T15:42:16;15.33;65.69
65396;HTU21D;52004;45.136;39.010;2023-05-02T15:44:42;15.29;65.72